LGSO Airport Information

Runway Information
Runway 18 Length 3542 ft width 98 ft
Elevation 225 ft Threshold 0 ft Heading 181
Runway 36 Length 3542 ft Width 98 ft
Elevation 236 ft Threshold 0 ft Heading 1
Airport Frequencies
Type A/G Name RDO Frequency 563.7 MHZ
Type AFIS Name AFIS Frequency 118.85 MHZ
Airport Navaids
Type NDB Name Syros Frequency 417 KHZ
Airport Weather Information & NOTAM

Deprecated: The each() function is deprecated. This message will be suppressed on further calls in /home/customer/www/peakairlines.org/public_html/lib/functions.php on line 130
ADDS - METARS form results

(2020 UTC 23 September 2021)
Data provider http://aviationweather.gov/metar/data/
 
METAR text: LGSO 231950Z AUTO 36017KT //// -RA ////// 19/09 Q1018 RE//
Conditions at: LGSO (SYROS , GR) observed 1950 UTC 23 September 2021
Temperature: 19.0°C (66°F)
Dewpoint: 9.0°C (48°F) [RH = 52%]
Pressure (altimeter): 30.06 inches Hg (1018.0 mb)
Winds: from the N (360 degrees) at 20 MPH (17 knots; 8.7 m/s)
Visibility: missing
Ceiling: unknown
Clouds: missing
Weather: -RA  (light rain)